sensor_id;sensor_type;location;lat;lon;timestamp;temperature;humidity
78694;SHT31;68029;51.978;5.646;2023-03-30T00:00:04;14.5;64.5
78694;SHT31;68029;51.978;5.646;2023-03-30T00:02:42;14.5;64.5
78694;SHT31;68029;51.978;5.646;2023-03-30T00:05:12;14.5;64.4
78694;SHT31;68029;51.978;5.646;2023-03-30T00:07:42;14.5;64.3
78694;SHT31;68029;51.978;5.646;2023-03-30T00:10:15;14.5;64.4
78694;SHT31;68029;51.978;5.646;2023-03-30T00:12:47;14.5;64.1
78694;SHT31;68029;51.978;5.646;2023-03-30T00:15:21;14.5;64.2
78694;SHT31;68029;51.978;5.646;2023-03-30T00:17:51;14.5;64.6
78694;SHT31;68029;51.978;5.646;2023-03-30T00:20:21;14.6;64.6
78694;SHT31;68029;51.978;5.646;2023-03-30T00:22:51;14.6;64.2
78694;SHT31;68029;51.978;5.646;2023-03-30T00:25:20;14.6;64.2
78694;SHT31;68029;51.978;5.646;2023-03-30T00:27:52;14.6;64.0
78694;SHT31;68029;51.978;5.646;2023-03-30T00:30:22;14.6;63.7
78694;SHT31;68029;51.978;5.646;2023-03-30T00:32:52;14.6;63.4
78694;SHT31;68029;51.978;5.646;2023-03-30T00:35:22;14.6;63.3
78694;SHT31;68029;51.978;5.646;2023-03-30T00:37:53;14.6;63.0
78694;SHT31;68029;51.978;5.646;2023-03-30T00:40:23;14.6;63.0
78694;SHT31;68029;51.978;5.646;2023-03-30T00:42:56;14.6;62.9
78694;SHT31;68029;51.978;5.646;2023-03-30T00:45:28;14.6;62.9
78694;SHT31;68029;51.978;5.646;2023-03-30T00:48:04;14.6;63.1
78694;SHT31;68029;51.978;5.646;2023-03-30T00:50:39;14.7;63.0
78694;SHT31;68029;51.978;5.646;2023-03-30T00:53:13;14.7;63.0
78694;SHT31;68029;51.978;5.646;2023-03-30T00:55:47;14.7;62.8
78694;SHT31;68029;51.978;5.646;2023-03-30T00:58:20;14.7;62.7
78694;SHT31;68029;51.978;5.646;2023-03-30T01:00:51;14.7;62.4
78694;SHT31;68029;51.978;5.646;2023-03-30T01:03:26;14.7;62.5
78694;SHT31;68029;51.978;5.646;2023-03-30T01:05:59;14.7;62.4
78694;SHT31;68029;51.978;5.646;2023-03-30T01:08:30;14.7;62.3
78694;SHT31;68029;51.978;5.646;2023-03-30T01:11:02;14.7;62.3
78694;SHT31;68029;51.978;5.646;2023-03-30T01:13:35;14.7;62.3
78694;SHT31;68029;51.978;5.646;2023-03-30T01:16:16;14.7;62.2
78694;SHT31;68029;51.978;5.646;2023-03-30T01:18:59;14.7;62.3
78694;SHT31;68029;51.978;5.646;2023-03-30T01:32:56;14.7;62.2
78694;SHT31;68029;51.978;5.646;2023-03-30T01:35:53;14.7;62.2
78694;SHT31;68029;51.978;5.646;2023-03-30T01:43:37;14.7;62.2
78694;SHT31;68029;51.978;5.646;2023-03-30T01:46:17;14.7;62.2
78694;SHT31;68029;51.978;5.646;2023-03-30T01:49:01;14.7;62.2
78694;SHT31;68029;51.978;5.646;2023-03-30T01:51:43;14.7;62.2
78694;SHT31;68029;51.978;5.646;2023-03-30T01:54:19;14.7;62.3
78694;SHT31;68029;51.978;5.646;2023-03-30T01:56:56;14.7;62.6
78694;SHT31;68029;51.978;5.646;2023-03-30T01:59:35;14.8;62.2
78694;SHT31;68029;51.978;5.646;2023-03-30T02:02:07;14.8;61.5
78694;SHT31;68029;51.978;5.646;2023-03-30T02:04:40;14.8;61.1
78694;SHT31;68029;51.978;5.646;2023-03-30T02:07:15;14.8;61.2
78694;SHT31;68029;51.978;5.646;2023-03-30T02:09:51;14.8;61.3
78694;SHT31;68029;51.978;5.646;2023-03-30T02:12:26;14.8;61.1
78694;SHT31;68029;51.978;5.646;2023-03-30T02:15:01;14.8;61.2
78694;SHT31;68029;51.978;5.646;2023-03-30T02:17:34;14.8;61.1
78694;SHT31;68029;51.978;5.646;2023-03-30T02:20:06;14.8;61.1
78694;SHT31;68029;51.978;5.646;2023-03-30T02:22:39;14.8;61.0
78694;SHT31;68029;51.978;5.646;2023-03-30T02:25:11;14.8;60.9
78694;SHT31;68029;51.978;5.646;2023-03-30T02:27:42;14.8;60.8
78694;SHT31;68029;51.978;5.646;2023-03-30T02:30:13;14.8;60.8
78694;SHT31;68029;51.978;5.646;2023-03-30T02:32:47;14.8;60.9
78694;SHT31;68029;51.978;5.646;2023-03-30T02:35:28;14.7;60.9
78694;SHT31;68029;51.978;5.646;2023-03-30T02:38:21;14.7;61.0
78694;SHT31;68029;51.978;5.646;2023-03-30T02:41:09;14.7;61.1
78694;SHT31;68029;51.978;5.646;2023-03-30T02:43:54;14.7;61.1
78694;SHT31;68029;51.978;5.646;2023-03-30T02:46:42;14.6;61.3
78694;SHT31;68029;51.978;5.646;2023-03-30T02:49:26;14.6;61.4
78694;SHT31;68029;51.978;5.646;2023-03-30T02:52:07;14.6;61.7
78694;SHT31;68029;51.978;5.646;2023-03-30T02:54:49;14.5;62.1
78694;SHT31;68029;51.978;5.646;2023-03-30T02:57:27;14.5;62.4
78694;SHT31;68029;51.978;5.646;2023-03-30T03:00:02;14.5;62.7
78694;SHT31;68029;51.978;5.646;2023-03-30T03:02:42;14.5;63.1
78694;SHT31;68029;51.978;5.646;2023-03-30T03:05:15;14.5;63.5
78694;SHT31;68029;51.978;5.646;2023-03-30T03:07:47;14.5;63.5
78694;SHT31;68029;51.978;5.646;2023-03-30T03:10:19;14.6;63.5
78694;SHT31;68029;51.978;5.646;2023-03-30T03:12:49;14.6;63.6
78694;SHT31;68029;51.978;5.646;2023-03-30T03:15:22;14.7;63.8
78694;SHT31;68029;51.978;5.646;2023-03-30T03:17:54;14.7;63.8
78694;SHT31;68029;51.978;5.646;2023-03-30T03:20:26;14.8;63.9
78694;SHT31;68029;51.978;5.646;2023-03-30T03:22:59;14.8;63.9
78694;SHT31;68029;51.978;5.646;2023-03-30T03:25:30;14.9;64.2
78694;SHT31;68029;51.978;5.646;2023-03-30T03:28:00;15.0;64.5
78694;SHT31;68029;51.978;5.646;2023-03-30T03:30:29;15.0;64.4
78694;SHT31;68029;51.978;5.646;2023-03-30T03:33:00;15.0;64.4
78694;SHT31;68029;51.978;5.646;2023-03-30T03:35:30;15.0;64.6
78694;SHT31;68029;51.978;5.646;2023-03-30T03:38:02;15.0;64.7
78694;SHT31;68029;51.978;5.646;2023-03-30T03:40:33;15.1;64.9
78694;SHT31;68029;51.978;5.646;2023-03-30T03:43:03;15.0;65.1
78694;SHT31;68029;51.978;5.646;2023-03-30T03:45:32;15.0;65.2
78694;SHT31;68029;51.978;5.646;2023-03-30T03:48:02;15.0;65.3
78694;SHT31;68029;51.978;5.646;2023-03-30T03:50:31;15.0;65.5
78694;SHT31;68029;51.978;5.646;2023-03-30T03:53:01;15.0;65.6
78694;SHT31;68029;51.978;5.646;2023-03-30T03:55:32;15.0;65.4
78694;SHT31;68029;51.978;5.646;2023-03-30T03:58:04;15.0;65.4
78694;SHT31;68029;51.978;5.646;2023-03-30T04:00:34;15.0;65.3
78694;SHT31;68029;51.978;5.646;2023-03-30T04:03:04;15.0;65.3
78694;SHT31;68029;51.978;5.646;2023-03-30T04:05:35;15.0;65.2
78694;SHT31;68029;51.978;5.646;2023-03-30T04:08:06;15.0;65.4
78694;SHT31;68029;51.978;5.646;2023-03-30T04:10:39;15.0;65.5
78694;SHT31;68029;51.978;5.646;2023-03-30T04:13:10;15.0;65.3
78694;SHT31;68029;51.978;5.646;2023-03-30T04:15:39;15.0;65.2
78694;SHT31;68029;51.978;5.646;2023-03-30T04:18:09;15.0;65.4
78694;SHT31;68029;51.978;5.646;2023-03-30T04:20:39;15.0;65.5
78694;SHT31;68029;51.978;5.646;2023-03-30T04:23:08;15.0;65.6
78694;SHT31;68029;51.978;5.646;2023-03-30T04:25:45;15.1;65.5
78694;SHT31;68029;51.978;5.646;2023-03-30T04:28:14;15.1;65.6
78694;SHT31;68029;51.978;5.646;2023-03-30T04:30:48;15.1;65.7
78694;SHT31;68029;51.978;5.646;2023-03-30T04:33:18;15.1;65.6
78694;SHT31;68029;51.978;5.646;2023-03-30T04:35:47;15.1;65.7
78694;SHT31;68029;51.978;5.646;2023-03-30T04:38:17;15.1;65.9
78694;SHT31;68029;51.978;5.646;2023-03-30T04:40:49;15.1;66.0
78694;SHT31;68029;51.978;5.646;2023-03-30T04:43:20;15.1;65.9
78694;SHT31;68029;51.978;5.646;2023-03-30T04:45:51;15.1;66.2
78694;SHT31;68029;51.978;5.646;2023-03-30T04:48:22;15.1;66.4
78694;SHT31;68029;51.978;5.646;2023-03-30T04:50:52;15.1;66.6
78694;SHT31;68029;51.978;5.646;2023-03-30T04:53:22;15.0;67.2
78694;SHT31;68029;51.978;5.646;2023-03-30T04:55:52;15.0;68.4
78694;SHT31;68029;51.978;5.646;2023-03-30T04:58:21;15.0;68.8
78694;SHT31;68029;51.978;5.646;2023-03-30T05:00:51;15.0;68.8
78694;SHT31;68029;51.978;5.646;2023-03-30T05:03:21;15.0;69.0
78694;SHT31;68029;51.978;5.646;2023-03-30T05:05:51;14.9;68.9
78694;SHT31;68029;51.978;5.646;2023-03-30T05:08:21;14.9;69.2
78694;SHT31;68029;51.978;5.646;2023-03-30T05:10:50;14.8;69.8
78694;SHT31;68029;51.978;5.646;2023-03-30T05:13:22;14.7;70.1
78694;SHT31;68029;51.978;5.646;2023-03-30T05:15:54;14.6;71.2
78694;SHT31;68029;51.978;5.646;2023-03-30T05:18:23;14.6;71.6
78694;SHT31;68029;51.978;5.646;2023-03-30T05:20:55;14.5;72.2
78694;SHT31;68029;51.978;5.646;2023-03-30T05:23:26;14.4;72.3
78694;SHT31;68029;51.978;5.646;2023-03-30T05:25:56;14.4;72.8
78694;SHT31;68029;51.978;5.646;2023-03-30T05:28:25;14.4;72.8
78694;SHT31;68029;51.978;5.646;2023-03-30T05:30:55;14.3;73.1
78694;SHT31;68029;51.978;5.646;2023-03-30T05:33:25;14.3;73.3
78694;SHT31;68029;51.978;5.646;2023-03-30T05:35:54;14.2;73.5
78694;SHT31;68029;51.978;5.646;2023-03-30T05:38:24;14.2;73.6
78694;SHT31;68029;51.978;5.646;2023-03-30T05:40:53;14.1;73.7
78694;SHT31;68029;51.978;5.646;2023-03-30T05:43:25;14.1;73.8
78694;SHT31;68029;51.978;5.646;2023-03-30T05:45:54;14.1;73.8
78694;SHT31;68029;51.978;5.646;2023-03-30T05:48:24;14.0;74.0
78694;SHT31;68029;51.978;5.646;2023-03-30T05:50:54;14.0;74.1
78694;SHT31;68029;51.978;5.646;2023-03-30T05:53:23;13.9;74.3
78694;SHT31;68029;51.978;5.646;2023-03-30T05:55:53;13.9;74.6
78694;SHT31;68029;51.978;5.646;2023-03-30T05:58:23;13.9;74.9
78694;SHT31;68029;51.978;5.646;2023-03-30T06:00:56;13.9;74.8
78694;SHT31;68029;51.978;5.646;2023-03-30T06:03:26;13.9;75.0
78694;SHT31;68029;51.978;5.646;2023-03-30T06:05:57;13.9;74.8
78694;SHT31;68029;51.978;5.646;2023-03-30T06:08:27;13.9;75.0
78694;SHT31;68029;51.978;5.646;2023-03-30T06:10:56;13.9;75.0
78694;SHT31;68029;51.978;5.646;2023-03-30T06:13:27;13.9;75.1
78694;SHT31;68029;51.978;5.646;2023-03-30T06:15:56;13.9;74.8
78694;SHT31;68029;51.978;5.646;2023-03-30T06:18:26;13.9;74.9
78694;SHT31;68029;51.978;5.646;2023-03-30T06:20:56;13.9;74.7
78694;SHT31;68029;51.978;5.646;2023-03-30T06:23:28;13.9;74.8
78694;SHT31;68029;51.978;5.646;2023-03-30T06:25:58;13.9;74.0
78694;SHT31;68029;51.978;5.646;2023-03-30T06:28:28;13.9;73.8
78694;SHT31;68029;51.978;5.646;2023-03-30T06:30:58;13.9;73.6
78694;SHT31;68029;51.978;5.646;2023-03-30T06:33:29;13.9;73.7
78694;SHT31;68029;51.978;5.646;2023-03-30T06:35:58;13.9;73.5
78694;SHT31;68029;51.978;5.646;2023-03-30T06:38:28;13.9;73.5
78694;SHT31;68029;51.978;5.646;2023-03-30T06:41:02;13.9;73.7
78694;SHT31;68029;51.978;5.646;2023-03-30T06:43:33;14.0;73.7
78694;SHT31;68029;51.978;5.646;2023-03-30T06:46:05;14.0;74.0
78694;SHT31;68029;51.978;5.646;2023-03-30T06:48:35;14.0;73.9
78694;SHT31;68029;51.978;5.646;2023-03-30T06:51:05;14.0;73.7
78694;SHT31;68029;51.978;5.646;2023-03-30T06:53:35;14.0;73.6
78694;SHT31;68029;51.978;5.646;2023-03-30T06:56:05;14.1;72.4
78694;SHT31;68029;51.978;5.646;2023-03-30T06:58:35;14.1;71.5
78694;SHT31;68029;51.978;5.646;2023-03-30T07:01:14;14.1;71.2
78694;SHT31;68029;51.978;5.646;2023-03-30T07:03:44;14.1;71.0
78694;SHT31;68029;51.978;5.646;2023-03-30T07:06:14;14.1;70.6
78694;SHT31;68029;51.978;5.646;2023-03-30T07:08:44;14.1;70.1
78694;SHT31;68029;51.978;5.646;2023-03-30T07:11:13;14.1;70.3
78694;SHT31;68029;51.978;5.646;2023-03-30T07:13:45;14.2;71.2
78694;SHT31;68029;51.978;5.646;2023-03-30T07:16:14;14.2;70.3
78694;SHT31;68029;51.978;5.646;2023-03-30T07:18:44;14.3;70.7
78694;SHT31;68029;51.978;5.646;2023-03-30T07:21:13;14.4;70.5
78694;SHT31;68029;51.978;5.646;2023-03-30T07:23:43;14.5;69.3
78694;SHT31;68029;51.978;5.646;2023-03-30T07:26:12;14.6;69.7
78694;SHT31;68029;51.978;5.646;2023-03-30T07:28:43;14.7;69.5
78694;SHT31;68029;51.978;5.646;2023-03-30T07:31:13;14.8;68.6
78694;SHT31;68029;51.978;5.646;2023-03-30T07:33:43;14.9;68.3
78694;SHT31;68029;51.978;5.646;2023-03-30T07:36:16;14.9;67.1
78694;SHT31;68029;51.978;5.646;2023-03-30T07:38:46;14.9;67.0
78694;SHT31;68029;51.978;5.646;2023-03-30T07:41:16;14.9;66.9
78694;SHT31;68029;51.978;5.646;2023-03-30T07:43:46;14.9;66.7
78694;SHT31;68029;51.978;5.646;2023-03-30T07:46:16;15.0;66.2
78694;SHT31;68029;51.978;5.646;2023-03-30T07:48:45;15.0;66.6
78694;SHT31;68029;51.978;5.646;2023-03-30T07:51:15;15.0;66.5
78694;SHT31;68029;51.978;5.646;2023-03-30T07:53:48;15.0;65.5
78694;SHT31;68029;51.978;5.646;2023-03-30T07:56:17;14.9;66.0
78694;SHT31;68029;51.978;5.646;2023-03-30T07:58:47;14.9;65.4
78694;SHT31;68029;51.978;5.646;2023-03-30T08:01:17;14.9;65.2
78694;SHT31;68029;51.978;5.646;2023-03-30T08:03:47;14.9;64.9
78694;SHT31;68029;51.978;5.646;2023-03-30T08:06:17;14.9;65.4
78694;SHT31;68029;51.978;5.646;2023-03-30T08:08:46;14.9;64.7
78694;SHT31;68029;51.978;5.646;2023-03-30T08:11:16;14.9;65.0
78694;SHT31;68029;51.978;5.646;2023-03-30T08:13:46;14.9;65.6
78694;SHT31;68029;51.978;5.646;2023-03-30T08:16:15;15.0;65.6
78694;SHT31;68029;51.978;5.646;2023-03-30T08:18:46;15.0;64.9
78694;SHT31;68029;51.978;5.646;2023-03-30T08:21:16;15.0;64.6
78694;SHT31;68029;51.978;5.646;2023-03-30T08:23:45;15.0;65.1
78694;SHT31;68029;51.978;5.646;2023-03-30T08:26:15;15.1;65.1
78694;SHT31;68029;51.978;5.646;2023-03-30T08:28:45;15.1;64.1
78694;SHT31;68029;51.978;5.646;2023-03-30T08:31:14;15.2;63.9
78694;SHT31;68029;51.978;5.646;2023-03-30T08:33:44;15.2;64.4
78694;SHT31;68029;51.978;5.646;2023-03-30T08:36:15;15.2;64.4
78694;SHT31;68029;51.978;5.646;2023-03-30T08:38:46;15.3;64.1
78694;SHT31;68029;51.978;5.646;2023-03-30T08:43:27;15.3;63.8
78694;SHT31;68029;51.978;5.646;2023-03-30T08:46:01;15.3;63.1
78694;SHT31;68029;51.978;5.646;2023-03-30T08:48:33;15.3;63.2
78694;SHT31;68029;51.978;5.646;2023-03-30T08:51:13;15.3;63.3
78694;SHT31;68029;51.978;5.646;2023-03-30T08:53:44;15.3;63.5
78694;SHT31;68029;51.978;5.646;2023-03-30T08:56:20;15.3;63.1
78694;SHT31;68029;51.978;5.646;2023-03-30T08:59:01;15.3;63.8
78694;SHT31;68029;51.978;5.646;2023-03-30T09:01:41;15.3;63.2
78694;SHT31;68029;51.978;5.646;2023-03-30T09:04:21;15.3;62.9
78694;SHT31;68029;51.978;5.646;2023-03-30T09:06:55;15.3;63.1
78694;SHT31;68029;51.978;5.646;2023-03-30T09:09:29;15.3;63.7
78694;SHT31;68029;51.978;5.646;2023-03-30T09:12:04;15.3;64.4
78694;SHT31;68029;51.978;5.646;2023-03-30T09:14:40;15.2;64.7
78694;SHT31;68029;51.978;5.646;2023-03-30T09:17:15;15.1;65.7
78694;SHT31;68029;51.978;5.646;2023-03-30T09:19:53;15.1;66.2
78694;SHT31;68029;51.978;5.646;2023-03-30T09:22:34;15.1;67.2
78694;SHT31;68029;51.978;5.646;2023-03-30T09:25:13;15.2;67.4
78694;SHT31;68029;51.978;5.646;2023-03-30T09:27:50;15.4;66.7
78694;SHT31;68029;51.978;5.646;2023-03-30T09:30:29;15.6;65.3
78694;SHT31;68029;51.978;5.646;2023-03-30T09:33:06;15.8;64.7
78694;SHT31;68029;51.978;5.646;2023-03-30T09:35:42;16.0;64.0
78694;SHT31;68029;51.978;5.646;2023-03-30T09:38:18;16.1;62.2
78694;SHT31;68029;51.978;5.646;2023-03-30T09:41:01;16.3;61.5
78694;SHT31;68029;51.978;5.646;2023-03-30T09:43:39;16.4;60.6
78694;SHT31;68029;51.978;5.646;2023-03-30T09:46:12;16.5;61.2
78694;SHT31;68029;51.978;5.646;2023-03-30T09:48:44;16.8;59.7
78694;SHT31;68029;51.978;5.646;2023-03-30T09:51:16;17.0;59.0
78694;SHT31;68029;51.978;5.646;2023-03-30T09:53:48;17.3;58.3
78694;SHT31;68029;51.978;5.646;2023-03-30T09:56:25;17.6;57.2
78694;SHT31;68029;51.978;5.646;2023-03-30T09:58:55;17.8;56.2
78694;SHT31;68029;51.978;5.646;2023-03-30T10:01:35;18.0;56.1
78694;SHT31;68029;51.978;5.646;2023-03-30T10:04:10;18.1;54.7
78694;SHT31;68029;51.978;5.646;2023-03-30T10:06:47;18.2;53.7
78694;SHT31;68029;51.978;5.646;2023-03-30T10:09:22;18.2;53.9
78694;SHT31;68029;51.978;5.646;2023-03-30T10:11:54;18.2;53.0
78694;SHT31;68029;51.978;5.646;2023-03-30T10:14:29;18.1;53.3
78694;SHT31;68029;51.978;5.646;2023-03-30T10:17:03;18.0;52.7
78694;SHT31;68029;51.978;5.646;2023-03-30T10:19:34;17.9;52.5
78694;SHT31;68029;51.978;5.646;2023-03-30T10:22:15;17.7;53.0
78694;SHT31;68029;51.978;5.646;2023-03-30T10:24:54;17.6;53.4
78694;SHT31;68029;51.978;5.646;2023-03-30T10:27:34;17.4;54.0
78694;SHT31;68029;51.978;5.646;2023-03-30T10:30:11;17.3;54.0
78694;SHT31;68029;51.978;5.646;2023-03-30T10:32:46;17.1;54.3
78694;SHT31;68029;51.978;5.646;2023-03-30T10:35:20;17.1;55.0
78694;SHT31;68029;51.978;5.646;2023-03-30T10:37:54;17.0;55.0
78694;SHT31;68029;51.978;5.646;2023-03-30T10:40:30;16.9;55.8
78694;SHT31;68029;51.978;5.646;2023-03-30T10:43:02;16.9;55.9
78694;SHT31;68029;51.978;5.646;2023-03-30T10:45:36;16.9;55.2
78694;SHT31;68029;51.978;5.646;2023-03-30T10:48:28;16.8;54.2
78694;SHT31;68029;51.978;5.646;2023-03-30T10:51:10;16.8;54.9
78694;SHT31;68029;51.978;5.646;2023-03-30T10:53:51;16.8;56.3
78694;SHT31;68029;51.978;5.646;2023-03-30T10:56:36;16.8;55.7
78694;SHT31;68029;51.978;5.646;2023-03-30T11:01:08;16.9;55.4
78694;SHT31;68029;51.978;5.646;2023-03-30T11:03:45;17.0;54.9
78694;SHT31;68029;51.978;5.646;2023-03-30T11:06:21;17.0;55.2
78694;SHT31;68029;51.978;5.646;2023-03-30T11:08:54;17.0;54.9
78694;SHT31;68029;51.978;5.646;2023-03-30T11:11:32;17.0;54.3
78694;SHT31;68029;51.978;5.646;2023-03-30T11:14:07;16.9;54.5
78694;SHT31;68029;51.978;5.646;2023-03-30T11:16:43;16.9;55.2
78694;SHT31;68029;51.978;5.646;2023-03-30T11:19:22;16.8;56.0
78694;SHT31;68029;51.978;5.646;2023-03-30T11:22:01;16.9;54.9
78694;SHT31;68029;51.978;5.646;2023-03-30T11:24:34;17.0;55.1
78694;SHT31;68029;51.978;5.646;2023-03-30T11:27:12;17.1;53.8
78694;SHT31;68029;51.978;5.646;2023-03-30T11:29:47;17.3;53.7
78694;SHT31;68029;51.978;5.646;2023-03-30T11:32:25;17.3;53.6
78694;SHT31;68029;51.978;5.646;2023-03-30T11:35:05;17.4;52.7
78694;SHT31;68029;51.978;5.646;2023-03-30T11:37:47;17.4;53.3
78694;SHT31;68029;51.978;5.646;2023-03-30T11:40:23;17.3;52.3
78694;SHT31;68029;51.978;5.646;2023-03-30T11:42:54;17.3;52.8
78694;SHT31;68029;51.978;5.646;2023-03-30T11:45:40;17.2;53.5
78694;SHT31;68029;51.978;5.646;2023-03-30T11:48:25;17.2;54.2
78694;SHT31;68029;51.978;5.646;2023-03-30T11:51:09;17.2;53.8
78694;SHT31;68029;51.978;5.646;2023-03-30T11:53:53;17.2;54.2
78694;SHT31;68029;51.978;5.646;2023-03-30T11:56:35;17.3;53.2
78694;SHT31;68029;51.978;5.646;2023-03-30T11:59:16;17.4;52.7
78694;SHT31;68029;51.978;5.646;2023-03-30T12:02:08;17.4;53.1
78694;SHT31;68029;51.978;5.646;2023-03-30T12:04:45;17.4;54.1
78694;SHT31;68029;51.978;5.646;2023-03-30T12:07:29;17.4;54.3
78694;SHT31;68029;51.978;5.646;2023-03-30T12:10:02;17.5;53.4
78694;SHT31;68029;51.978;5.646;2023-03-30T12:12:36;17.5;53.3
78694;SHT31;68029;51.978;5.646;2023-03-30T12:15:23;17.5;53.2
78694;SHT31;68029;51.978;5.646;2023-03-30T12:18:01;17.5;53.7
78694;SHT31;68029;51.978;5.646;2023-03-30T12:20:40;17.5;54.4
78694;SHT31;68029;51.978;5.646;2023-03-30T12:23:25;17.5;53.0
78694;SHT31;68029;51.978;5.646;2023-03-30T12:26:21;17.5;53.4
78694;SHT31;68029;51.978;5.646;2023-03-30T12:29:09;17.5;54.4
78694;SHT31;68029;51.978;5.646;2023-03-30T12:32:08;17.5;54.0
78694;SHT31;68029;51.978;5.646;2023-03-30T12:34:43;17.5;53.0
78694;SHT31;68029;51.978;5.646;2023-03-30T12:37:15;17.6;54.0
78694;SHT31;68029;51.978;5.646;2023-03-30T12:39:57;17.6;53.8
78694;SHT31;68029;51.978;5.646;2023-03-30T12:42:35;17.7;53.8
78694;SHT31;68029;51.978;5.646;2023-03-30T12:45:26;17.8;52.9
78694;SHT31;68029;51.978;5.646;2023-03-30T12:48:18;17.9;53.2
78694;SHT31;68029;51.978;5.646;2023-03-30T12:51:00;18.0;52.8
78694;SHT31;68029;51.978;5.646;2023-03-30T12:53:58;18.1;51.9
78694;SHT31;68029;51.978;5.646;2023-03-30T12:56:37;18.2;52.8
78694;SHT31;68029;51.978;5.646;2023-03-30T12:59:32;18.2;52.7
78694;SHT31;68029;51.978;5.646;2023-03-30T13:03:01;18.2;51.0
78694;SHT31;68029;51.978;5.646;2023-03-30T13:05:37;18.1;50.7
78694;SHT31;68029;51.978;5.646;2023-03-30T13:08:18;18.0;52.2
78694;SHT31;68029;51.978;5.646;2023-03-30T13:10:49;17.8;51.4
78694;SHT31;68029;51.978;5.646;2023-03-30T13:13:45;17.7;53.1
78694;SHT31;68029;51.978;5.646;2023-03-30T13:19:23;17.5;52.6
78694;SHT31;68029;51.978;5.646;2023-03-30T13:22:16;17.4;52.3
78694;SHT31;68029;51.978;5.646;2023-03-30T13:24:53;17.3;53.2
78694;SHT31;68029;51.978;5.646;2023-03-30T13:27:28;17.2;54.0
78694;SHT31;68029;51.978;5.646;2023-03-30T13:30:03;17.1;54.3
78694;SHT31;68029;51.978;5.646;2023-03-30T13:32:48;17.0;55.3
78694;SHT31;68029;51.978;5.646;2023-03-30T13:35:34;17.0;56.5
78694;SHT31;68029;51.978;5.646;2023-03-30T13:38:29;16.9;56.8
78694;SHT31;68029;51.978;5.646;2023-03-30T13:41:20;16.9;57.7
78694;SHT31;68029;51.978;5.646;2023-03-30T13:44:12;16.9;57.9
78694;SHT31;68029;51.978;5.646;2023-03-30T13:46:51;16.9;58.2
78694;SHT31;68029;51.978;5.646;2023-03-30T13:49:38;16.9;58.4
78694;SHT31;68029;51.978;5.646;2023-03-30T13:52:15;16.9;59.3
78694;SHT31;68029;51.978;5.646;2023-03-30T13:54:47;17.0;59.2
78694;SHT31;68029;51.978;5.646;2023-03-30T13:57:20;17.0;58.1
78694;SHT31;68029;51.978;5.646;2023-03-30T14:00:00;17.0;57.1
78694;SHT31;68029;51.978;5.646;2023-03-30T14:02:32;17.1;57.1
78694;SHT31;68029;51.978;5.646;2023-03-30T14:05:19;17.2;57.4
78694;SHT31;68029;51.978;5.646;2023-03-30T14:07:49;17.5;55.5
78694;SHT31;68029;51.978;5.646;2023-03-30T14:10:20;17.9;53.2
78694;SHT31;68029;51.978;5.646;2023-03-30T14:12:52;18.2;52.6
78694;SHT31;68029;51.978;5.646;2023-03-30T14:15:32;18.3;51.5
78694;SHT31;68029;51.978;5.646;2023-03-30T14:18:02;18.5;50.5
78694;SHT31;68029;51.978;5.646;2023-03-30T14:20:46;18.5;49.5
78694;SHT31;68029;51.978;5.646;2023-03-30T14:23:21;18.6;49.6
78694;SHT31;68029;51.978;5.646;2023-03-30T14:25:57;18.5;48.6
78694;SHT31;68029;51.978;5.646;2023-03-30T14:28:29;18.4;48.9
78694;SHT31;68029;51.978;5.646;2023-03-30T14:31:14;18.3;49.2
78694;SHT31;68029;51.978;5.646;2023-03-30T14:33:45;18.1;50.0
78694;SHT31;68029;51.978;5.646;2023-03-30T14:36:16;18.0;50.8
78694;SHT31;68029;51.978;5.646;2023-03-30T14:38:49;18.0;51.8
78694;SHT31;68029;51.978;5.646;2023-03-30T14:41:21;18.0;51.3
78694;SHT31;68029;51.978;5.646;2023-03-30T14:43:56;18.0;51.1
78694;SHT31;68029;51.978;5.646;2023-03-30T14:46:37;18.1;51.0
78694;SHT31;68029;51.978;5.646;2023-03-30T14:49:17;18.1;50.5
78694;SHT31;68029;51.978;5.646;2023-03-30T14:51:49;18.1;51.5
78694;SHT31;68029;51.978;5.646;2023-03-30T14:54:21;18.2;50.7
78694;SHT31;68029;51.978;5.646;2023-03-30T14:56:56;18.2;50.9
78694;SHT31;68029;51.978;5.646;2023-03-30T14:59:27;18.2;51.3
78694;SHT31;68029;51.978;5.646;2023-03-30T15:02:02;18.2;51.1
78694;SHT31;68029;51.978;5.646;2023-03-30T15:04:35;18.1;50.7
78694;SHT31;68029;51.978;5.646;2023-03-30T15:07:06;18.1;50.2
78694;SHT31;68029;51.978;5.646;2023-03-30T15:09:38;18.1;49.7
78694;SHT31;68029;51.978;5.646;2023-03-30T15:12:19;18.0;50.5
78694;SHT31;68029;51.978;5.646;2023-03-30T15:14:54;18.0;50.0
78694;SHT31;68029;51.978;5.646;2023-03-30T15:17:26;17.9;50.2
78694;SHT31;68029;51.978;5.646;2023-03-30T15:20:00;17.8;50.2
78694;SHT31;68029;51.978;5.646;2023-03-30T15:22:36;17.7;51.3
78694;SHT31;68029;51.978;5.646;2023-03-30T15:25:13;17.7;51.4
78694;SHT31;68029;51.978;5.646;2023-03-30T15:27:48;17.7;50.7
78694;SHT31;68029;51.978;5.646;2023-03-30T15:30:30;17.7;51.0
78694;SHT31;68029;51.978;5.646;2023-03-30T15:33:01;17.6;51.4
78694;SHT31;68029;51.978;5.646;2023-03-30T15:35:34;17.6;50.7
78694;SHT31;68029;51.978;5.646;2023-03-30T15:38:14;17.5;51.4
78694;SHT31;68029;51.978;5.646;2023-03-30T15:40:46;17.5;51.7
78694;SHT31;68029;51.978;5.646;2023-03-30T15:43:22;17.4;51.7
78694;SHT31;68029;51.978;5.646;2023-03-30T15:45:55;17.4;50.4
78694;SHT31;68029;51.978;5.646;2023-03-30T15:48:38;17.3;51.0
78694;SHT31;68029;51.978;5.646;2023-03-30T15:51:12;17.3;50.6
78694;SHT31;68029;51.978;5.646;2023-03-30T15:53:51;17.2;51.0
78694;SHT31;68029;51.978;5.646;2023-03-30T15:56:23;17.1;51.0
78694;SHT31;68029;51.978;5.646;2023-03-30T15:58:57;17.1;51.4
78694;SHT31;68029;51.978;5.646;2023-03-30T16:01:42;17.0;52.0
78694;SHT31;68029;51.978;5.646;2023-03-30T16:04:17;17.0;52.2
78694;SHT31;68029;51.978;5.646;2023-03-30T16:06:47;17.0;52.0
78694;SHT31;68029;51.978;5.646;2023-03-30T16:09:20;17.0;52.6
78694;SHT31;68029;51.978;5.646;2023-03-30T16:11:50;17.0;52.0
78694;SHT31;68029;51.978;5.646;2023-03-30T16:14:20;17.0;51.7
78694;SHT31;68029;51.978;5.646;2023-03-30T16:16:52;17.0;51.7
78694;SHT31;68029;51.978;5.646;2023-03-30T16:19:22;17.0;51.6
78694;SHT31;68029;51.978;5.646;2023-03-30T16:21:52;17.0;51.8
78694;SHT31;68029;51.978;5.646;2023-03-30T16:24:22;17.0;51.3
78694;SHT31;68029;51.978;5.646;2023-03-30T16:26:52;17.0;51.7
78694;SHT31;68029;51.978;5.646;2023-03-30T16:29:23;16.9;52.0
78694;SHT31;68029;51.978;5.646;2023-03-30T16:31:53;16.9;52.3
78694;SHT31;68029;51.978;5.646;2023-03-30T16:34:23;16.9;51.9
78694;SHT31;68029;51.978;5.646;2023-03-30T16:36:53;16.9;52.2
78694;SHT31;68029;51.978;5.646;2023-03-30T16:39:25;16.8;52.2
78694;SHT31;68029;51.978;5.646;2023-03-30T16:41:55;16.8;52.6
78694;SHT31;68029;51.978;5.646;2023-03-30T16:44:24;16.7;52.8
78694;SHT31;68029;51.978;5.646;2023-03-30T16:46:54;16.7;53.4
78694;SHT31;68029;51.978;5.646;2023-03-30T16:49:25;16.7;54.2
78694;SHT31;68029;51.978;5.646;2023-03-30T16:51:54;16.6;53.7
78694;SHT31;68029;51.978;5.646;2023-03-30T16:54:24;16.6;53.6
78694;SHT31;68029;51.978;5.646;2023-03-30T16:56:54;16.6;53.8
78694;SHT31;68029;51.978;5.646;2023-03-30T16:59:25;16.5;54.5
78694;SHT31;68029;51.978;5.646;2023-03-30T17:01:55;16.5;54.6
78694;SHT31;68029;51.978;5.646;2023-03-30T17:04:26;16.4;54.8
78694;SHT31;68029;51.978;5.646;2023-03-30T17:06:55;16.4;55.1
78694;SHT31;68029;51.978;5.646;2023-03-30T17:09:24;16.3;55.5
78694;SHT31;68029;51.978;5.646;2023-03-30T17:11:54;16.2;55.7